Time;durP1;ratioP1;P1;durP2;ratioP2;P2;SDS_P1;SDS_P2;PMS_P1;PMS_P2;Temp;Humidity;BMP_temperature;BMP_pressure;BME280_temperature;BME280_humidity;BME280_pressure;Samples;Min_cycle;Max_cycle;Signal;HPM_P1;HPM_P2
2024/02/16 00:01:53;;;;;;;;;;;;;;;10.32;65.57;99453.59;68517;1278;1015008;-69
2024/02/16 00:04:55;;;;;;;;;;;;;;;10.37;65.06;99452.48;68513;1278;1014385;-69
2024/02/16 00:07:58;;;;;;;;;;;;;;;10.34;65.09;99450.35;68527;1278;1015176;-69
2024/02/16 00:11:00;;;;;;;;;;;;;;;10.35;64.96;99453.14;68534;1278;1015808;-70
2024/02/16 00:14:03;;;;;;;;;;;;;;;10.31;65.01;99450.82;68523;1278;1016456;-69
2024/02/16 00:17:06;;;;;;;;;;;;;;;10.37;64.52;99448.80;68550;1278;1015649;-69
2024/02/16 00:20:12;;;;;;;;;;;;;;;10.31;64.55;99443.67;68508;1278;1016042;-69
2024/02/16 00:23:14;;;;;;;;;;;;;;;10.22;64.41;99442.19;68523;1278;1015598;-70
2024/02/16 00:26:19;;;;;;;;;;;;;;;10.12;64.06;99440.77;68515;1278;1015510;-70
2024/02/16 00:29:21;;;;;;;;;;;;;;;9.94;64.66;99442.00;68535;1278;1016047;-69
2024/02/16 00:32:29;;;;;;;;;;;;;;;9.73;64.97;99441.05;68522;1278;1016433;-69
2024/02/16 00:35:33;;;;;;;;;;;;;;;9.65;65.79;99444.58;68516;1278;1015798;-69
2024/02/16 00:38:36;;;;;;;;;;;;;;;9.60;65.63;99441.52;68525;1278;1014857;-70
2024/02/16 00:41:38;;;;;;;;;;;;;;;9.57;65.60;99445.16;68525;1278;1015870;-69
2024/02/16 00:44:41;;;;;;;;;;;;;;;9.50;65.95;99439.88;68519;1278;1015352;-69
2024/02/16 00:47:44;;;;;;;;;;;;;;;9.44;65.76;99440.52;68541;1278;1015440;-69
2024/02/16 00:50:47;;;;;;;;;;;;;;;9.42;66.04;99438.34;68540;1278;1015312;-70
2024/02/16 00:53:50;;;;;;;;;;;;;;;9.33;65.99;99437.48;68531;1278;1016281;-69
2024/02/16 00:56:54;;;;;;;;;;;;;;;9.28;66.25;99432.16;68521;1278;1015568;-69
2024/02/16 00:59:57;;;;;;;;;;;;;;;9.26;66.04;99433.13;68512;1278;1015616;-69
2024/02/16 01:02:59;;;;;;;;;;;;;;;9.35;66.05;99433.05;68522;1278;1015700;-70
2024/02/16 01:06:02;;;;;;;;;;;;;;;9.32;65.52;99432.85;68538;1278;1015607;-69
2024/02/16 01:09:05;;;;;;;;;;;;;;;9.16;65.82;99428.00;68538;1278;1015713;-70
2024/02/16 01:12:08;;;;;;;;;;;;;;;9.10;66.05;99427.25;68512;1278;1014330;-69
2024/02/16 01:15:11;;;;;;;;;;;;;;;9.16;65.90;99424.33;68524;1278;1015682;-70
2024/02/16 01:18:13;;;;;;;;;;;;;;;9.01;66.02;99424.48;68532;1278;1015227;-69
2024/02/16 01:21:16;;;;;;;;;;;;;;;9.03;66.09;99423.50;68535;1278;1016257;-68
2024/02/16 01:24:19;;;;;;;;;;;;;;;9.00;65.91;99428.88;68533;1278;1015904;-70
2024/02/16 01:27:23;;;;;;;;;;;;;;;8.85;66.32;99421.86;68514;1278;1016367;-70
2024/02/16 01:30:26;;;;;;;;;;;;;;;8.83;66.52;99424.25;68527;1278;1015851;-70
2024/02/16 01:33:29;;;;;;;;;;;;;;;8.90;66.76;99421.66;68538;1278;1014857;-69
2024/02/16 01:36:31;;;;;;;;;;;;;;;8.97;66.21;99414.39;68531;1278;1015462;-69
2024/02/16 01:39:34;;;;;;;;;;;;;;;8.91;66.29;99413.95;68508;1278;1015739;-66
2024/02/16 01:42:36;;;;;;;;;;;;;;;8.94;65.60;99406.83;68471;1278;1014978;-70
2024/02/16 01:45:39;;;;;;;;;;;;;;;8.84;65.78;99407.25;68541;1278;1016376;-70
2024/02/16 01:48:42;;;;;;;;;;;;;;;8.68;66.34;99399.30;68524;1278;1015781;-70
2024/02/16 01:51:44;;;;;;;;;;;;;;;8.65;66.83;99399.39;68520;1278;1015421;-69
2024/02/16 01:54:47;;;;;;;;;;;;;;;8.70;66.38;99398.65;68541;1278;1015134;-69
2024/02/16 01:57:49;;;;;;;;;;;;;;;8.68;66.63;99399.26;68522;1278;1015795;-69
2024/02/16 02:00:52;;;;;;;;;;;;;;;8.66;66.60;99400.04;68535;1278;1016498;-64
2024/02/16 02:03:55;;;;;;;;;;;;;;;8.53;66.83;99397.44;68526;1278;1015662;-69
2024/02/16 02:06:57;;;;;;;;;;;;;;;8.44;67.40;99398.19;68526;1278;1015927;-69
2024/02/16 02:10:00;;;;;;;;;;;;;;;8.45;66.98;99395.70;68537;1278;1015807;-69
2024/02/16 02:13:03;;;;;;;;;;;;;;;8.38;66.96;99394.09;68515;1278;1015484;-69
2024/02/16 02:16:06;;;;;;;;;;;;;;;8.32;67.67;99400.94;68521;1278;1014476;-70
2024/02/16 02:19:08;;;;;;;;;;;;;;;8.47;66.77;99394.73;68529;1278;1015346;-69
2024/02/16 02:22:11;;;;;;;;;;;;;;;8.45;66.57;99393.59;68526;1278;1016033;-69
2024/02/16 02:25:13;;;;;;;;;;;;;;;8.33;67.03;99400.57;68536;1278;1015602;-69
2024/02/16 02:28:16;;;;;;;;;;;;;;;8.30;67.27;99403.98;68544;1278;1015342;-70
2024/02/16 02:31:19;;;;;;;;;;;;;;;8.21;67.13;99405.95;68544;1278;1016025;-70
2024/02/16 02:34:21;;;;;;;;;;;;;;;8.22;67.12;99405.55;68547;1278;1016210;-70
2024/02/16 02:37:24;;;;;;;;;;;;;;;8.16;67.14;99402.14;68512;1278;1015969;-70
2024/02/16 02:40:26;;;;;;;;;;;;;;;8.02;67.97;99404.30;68538;1278;1015720;-69
2024/02/16 02:43:29;;;;;;;;;;;;;;;7.98;67.99;99409.19;68536;1278;1015491;-69
2024/02/16 02:46:32;;;;;;;;;;;;;;;7.99;67.79;99407.02;68565;1278;1015915;-69
2024/02/16 02:49:34;;;;;;;;;;;;;;;7.95;67.84;99407.00;68534;1278;1015640;-61
2024/02/16 02:52:37;;;;;;;;;;;;;;;8.05;67.65;99402.98;68537;1278;1015805;-70
2024/02/16 02:55:40;;;;;;;;;;;;;;;8.04;67.74;99402.13;68525;1278;1015954;-69
2024/02/16 02:58:42;;;;;;;;;;;;;;;7.92;68.18;99407.13;68525;1278;1015863;-69
2024/02/16 03:01:45;;;;;;;;;;;;;;;7.87;68.23;99402.67;68529;1278;1015416;-67
2024/02/16 03:04:48;;;;;;;;;;;;;;;7.90;67.94;99396.77;68535;1278;1016418;-69
2024/02/16 03:07:52;;;;;;;;;;;;;;;7.94;68.13;99398.33;68535;1278;1015466;-68
2024/02/16 03:10:54;;;;;;;;;;;;;;;7.99;67.80;99396.06;68530;1278;1016153;-69
2024/02/16 03:13:57;;;;;;;;;;;;;;;7.93;67.88;99405.90;68538;1278;1015854;-69
2024/02/16 03:17:00;;;;;;;;;;;;;;;7.90;67.73;99404.61;68549;1278;1015620;-70
2024/02/16 03:20:02;;;;;;;;;;;;;;;7.94;68.02;99401.67;68528;1278;1016197;-69
2024/02/16 03:23:05;;;;;;;;;;;;;;;7.86;67.88;99398.51;68544;1278;1015480;-70
2024/02/16 03:26:07;;;;;;;;;;;;;;;7.86;67.30;99400.59;68544;1278;1016112;-70
2024/02/16 03:29:10;;;;;;;;;;;;;;;7.72;67.66;99404.30;68563;1278;1015281;-70
2024/02/16 03:32:13;;;;;;;;;;;;;;;7.58;68.33;99400.83;68546;1278;1016099;-70
2024/02/16 03:35:15;;;;;;;;;;;;;;;7.52;69.22;99399.86;68530;1278;1016147;-69
2024/02/16 03:38:18;;;;;;;;;;;;;;;7.55;69.18;99399.53;68524;1278;1015884;-69
2024/02/16 03:41:20;;;;;;;;;;;;;;;7.60;69.13;99398.99;68519;1278;1016195;-69
2024/02/16 03:44:23;;;;;;;;;;;;;;;7.62;68.68;99399.27;68517;1278;1016495;-70
2024/02/16 03:47:26;;;;;;;;;;;;;;;7.41;69.66;99406.72;68524;1278;1015885;-70
2024/02/16 03:50:28;;;;;;;;;;;;;;;7.36;69.94;99404.29;68523;1278;1016079;-70
2024/02/16 03:53:31;;;;;;;;;;;;;;;7.31;69.98;99408.82;68550;1278;1014627;-70
2024/02/16 03:56:35;;;;;;;;;;;;;;;7.38;70.14;99413.77;68541;1278;1016287;-70
2024/02/16 03:59:37;;;;;;;;;;;;;;;7.43;69.44;99413.56;68518;1278;1015305;-70
2024/02/16 04:02:40;;;;;;;;;;;;;;;7.48;69.22;99412.35;68549;1278;1015356;-69
2024/02/16 04:05:43;;;;;;;;;;;;;;;7.38;69.58;99406.98;68535;1278;1014414;-69
2024/02/16 04:08:45;;;;;;;;;;;;;;;7.36;69.77;99408.64;68529;1278;1015341;-70
2024/02/16 04:11:48;;;;;;;;;;;;;;;7.33;70.14;99404.06;68537;1278;1015878;-70
2024/02/16 04:14:50;;;;;;;;;;;;;;;7.27;70.42;99408.62;68528;1278;1015290;-69
2024/02/16 04:17:53;;;;;;;;;;;;;;;7.33;70.26;99403.17;68526;1278;1015199;-69
2024/02/16 04:20:55;;;;;;;;;;;;;;;7.30;70.23;99400.50;68533;1278;1015715;-69
2024/02/16 04:23:58;;;;;;;;;;;;;;;7.23;70.40;99398.17;68535;1278;1016494;-70
2024/02/16 04:27:01;;;;;;;;;;;;;;;7.23;70.59;99400.25;68535;1278;1015878;-69
2024/02/16 04:30:03;;;;;;;;;;;;;;;7.23;70.70;99404.96;68527;1278;1015269;-69
2024/02/16 04:33:06;;;;;;;;;;;;;;;7.15;71.02;99401.08;68538;1278;1015890;-69
2024/02/16 04:36:08;;;;;;;;;;;;;;;7.05;71.29;99401.46;68563;1278;1015348;-69
2024/02/16 04:39:14;;;;;;;;;;;;;;;7.10;71.35;99401.80;68539;1278;1015798;-70
2024/02/16 04:42:18;;;;;;;;;;;;;;;6.93;71.87;99404.52;68516;1278;1016256;-69
2024/02/16 04:45:20;;;;;;;;;;;;;;;6.94;71.94;99409.33;68528;1278;1016189;-70
2024/02/16 04:48:23;;;;;;;;;;;;;;;6.97;71.93;99409.90;68547;1278;1016052;-68
2024/02/16 04:51:25;;;;;;;;;;;;;;;6.99;71.97;99404.30;68516;1278;1014528;-70
2024/02/16 04:54:28;;;;;;;;;;;;;;;7.01;71.84;99403.85;68516;1278;1015702;-69
2024/02/16 04:57:31;;;;;;;;;;;;;;;7.03;71.74;99403.27;68531;1278;1015398;-69
2024/02/16 05:00:34;;;;;;;;;;;;;;;6.98;71.97;99398.92;68524;1278;1015874;-70
2024/02/16 05:03:37;;;;;;;;;;;;;;;6.90;72.19;99401.64;68478;1278;1015815;-70
2024/02/16 05:06:39;;;;;;;;;;;;;;;6.86;72.49;99402.33;68543;1278;1016565;-69
2024/02/16 05:09:43;;;;;;;;;;;;;;;6.89;72.25;99400.30;68522;1278;1014853;-70
2024/02/16 05:12:45;;;;;;;;;;;;;;;6.98;71.86;99398.59;68523;1278;1015555;-70
2024/02/16 05:15:48;;;;;;;;;;;;;;;6.95;72.14;99398.19;68536;1278;1015596;-70
2024/02/16 05:18:51;;;;;;;;;;;;;;;6.86;72.26;99404.08;68548;1278;1015544;-69
2024/02/16 05:21:53;;;;;;;;;;;;;;;6.86;72.38;99401.45;68539;1278;1015590;-69
2024/02/16 05:24:56;;;;;;;;;;;;;;;6.85;72.31;99400.46;68527;1278;1015495;-69
2024/02/16 05:27:59;;;;;;;;;;;;;;;6.91;72.32;99395.90;68535;1278;1015103;-69
2024/02/16 05:31:02;;;;;;;;;;;;;;;6.81;72.28;99397.65;68529;1278;1016045;-65
2024/02/16 05:34:04;;;;;;;;;;;;;;;6.80;72.34;99391.42;68519;1278;1015841;-69
2024/02/16 05:37:07;;;;;;;;;;;;;;;6.78;72.70;99394.80;68513;1278;1016024;-69
2024/02/16 05:40:18;;;;;;;;;;;;;;;6.90;72.69;99398.89;68522;1278;1015919;-69
2024/02/16 05:43:21;;;;;;;;;;;;;;;6.98;72.46;99402.77;68531;1278;1015325;-70
2024/02/16 05:46:23;;;;;;;;;;;;;;;6.98;72.08;99402.92;68533;1278;1015913;-70
2024/02/16 05:49:26;;;;;;;;;;;;;;;6.96;71.99;99401.96;68536;1278;1016116;-70
2024/02/16 05:52:30;;;;;;;;;;;;;;;6.97;72.32;99404.17;68531;1278;1015522;-68
2024/02/16 05:55:32;;;;;;;;;;;;;;;7.01;72.21;99403.69;68542;1278;1015351;-70
2024/02/16 05:58:35;;;;;;;;;;;;;;;6.93;72.29;99406.23;68525;1278;1014922;-70
2024/02/16 06:01:39;;;;;;;;;;;;;;;6.91;72.66;99405.29;68519;1278;1016230;-69
2024/02/16 06:04:41;;;;;;;;;;;;;;;6.95;72.78;99404.43;68526;1278;1015528;-70
2024/02/16 06:07:44;;;;;;;;;;;;;;;7.00;72.49;99405.30;68536;1278;1015986;-69
2024/02/16 06:10:50;;;;;;;;;;;;;;;7.06;72.73;99401.59;68527;1278;1015676;-70
2024/02/16 06:13:53;;;;;;;;;;;;;;;7.07;72.43;99405.20;68517;1278;1015829;-69
2024/02/16 06:16:56;;;;;;;;;;;;;;;7.10;72.26;99405.63;68522;1278;1015991;-69
2024/02/16 06:19:58;;;;;;;;;;;;;;;7.14;72.37;99414.36;68514;1278;1015543;-70
2024/02/16 06:23:01;;;;;;;;;;;;;;;7.17;72.24;99415.61;68522;1278;1014987;-69
2024/02/16 06:26:04;;;;;;;;;;;;;;;7.20;72.10;99417.09;68510;1278;1015815;-69
2024/02/16 06:29:08;;;;;;;;;;;;;;;7.19;72.05;99425.64;68512;1278;1015706;-68
2024/02/16 06:32:12;;;;;;;;;;;;;;;7.26;72.00;99426.06;68535;1278;1015437;-69
2024/02/16 06:35:16;;;;;;;;;;;;;;;7.45;72.01;99432.47;68520;1278;1015406;-69
2024/02/16 06:38:18;;;;;;;;;;;;;;;7.60;71.37;99429.09;68520;1278;1016435;-70
2024/02/16 06:41:21;;;;;;;;;;;;;;;7.63;71.14;99429.19;68516;1277;1015474;-69
2024/02/16 06:44:23;;;;;;;;;;;;;;;7.67;71.77;99417.55;68514;1278;1015950;-69
2024/02/16 06:47:26;;;;;;;;;;;;;;;7.71;71.62;99419.98;68514;1278;1015982;-69
2024/02/16 06:50:28;;;;;;;;;;;;;;;7.67;71.74;99422.94;68541;1278;1015979;-70
2024/02/16 06:53:31;;;;;;;;;;;;;;;7.66;72.23;99422.45;68517;1278;1016158;-70
2024/02/16 06:56:33;;;;;;;;;;;;;;;7.72;72.08;99421.34;68531;1278;1016138;-69
2024/02/16 06:59:36;;;;;;;;;;;;;;;7.76;72.47;99423.62;68502;1278;1016209;-70
2024/02/16 07:02:40;;;;;;;;;;;;;;;7.82;72.53;99426.19;68523;1278;1015365;-70
2024/02/16 07:05:43;;;;;;;;;;;;;;;8.04;72.72;99426.66;68529;1278;1015061;-70
2024/02/16 07:08:45;;;;;;;;;;;;;;;8.30;72.18;99429.60;68522;1278;1015520;-69
2024/02/16 07:11:50;;;;;;;;;;;;;;;8.47;71.22;99436.08;68530;1278;1015990;-69
2024/02/16 07:14:53;;;;;;;;;;;;;;;8.63;71.07;99429.30;68535;1278;1015682;-68
2024/02/16 07:17:59;;;;;;;;;;;;;;;8.84;70.43;99433.11;68509;1278;1015946;-69
2024/02/16 07:21:03;;;;;;;;;;;;;;;9.21;69.94;99433.70;68519;1278;1015128;-70
2024/02/16 07:24:06;;;;;;;;;;;;;;;9.37;69.27;99435.43;68516;1278;1015401;-70
2024/02/16 07:27:10;;;;;;;;;;;;;;;9.50;69.52;99442.86;68508;1278;1016004;-69
2024/02/16 07:30:13;;;;;;;;;;;;;;;9.65;68.92;99442.66;68524;1278;1015200;-69
2024/02/16 07:33:16;;;;;;;;;;;;;;;9.76;69.13;99440.77;68541;1278;1015470;-69
2024/02/16 07:36:19;;;;;;;;;;;;;;;9.97;68.60;99440.77;68514;1278;1014306;-69
2024/02/16 07:39:23;;;;;;;;;;;;;;;10.12;68.03;99441.28;68513;1278;1014553;-69
2024/02/16 07:42:26;;;;;;;;;;;;;;;10.25;67.82;99443.77;68513;1278;1015373;-70
2024/02/16 07:45:28;;;;;;;;;;;;;;;10.50;68.26;99442.07;68520;1278;1015271;-61
2024/02/16 07:48:31;;;;;;;;;;;;;;;10.63;67.35;99433.54;68502;1278;1015739;-70
2024/02/16 07:51:33;;;;;;;;;;;;;;;10.83;66.69;99435.45;68529;1278;1016086;-69
2024/02/16 07:54:36;;;;;;;;;;;;;;;11.00;66.17;99433.73;68520;1278;1016168;-69
2024/02/16 07:57:38;;;;;;;;;;;;;;;11.13;66.31;99431.09;68505;1278;1016463;-69
2024/02/16 08:00:41;;;;;;;;;;;;;;;11.36;66.24;99424.60;68516;1278;1014768;-70
2024/02/16 08:03:43;;;;;;;;;;;;;;;11.55;66.06;99422.15;65947;1278;6360585;-69
2024/02/16 08:06:46;;;;;;;;;;;;;;;11.72;65.95;99421.95;68504;1278;1015413;-69
2024/02/16 08:09:57;;;;;;;;;;;;;;;11.94;65.10;99418.06;68446;1278;1016331;-69
2024/02/16 08:13:00;;;;;;;;;;;;;;;12.09;65.15;99414.94;68507;1278;1015988;-69
2024/02/16 08:16:06;;;;;;;;;;;;;;;12.11;65.24;99419.56;68514;1278;1016606;-70
2024/02/16 08:19:10;;;;;;;;;;;;;;;12.32;64.69;99415.19;68485;1278;1015868;-70
2024/02/16 08:22:12;;;;;;;;;;;;;;;12.48;65.00;99414.83;68529;1278;1015982;-69
2024/02/16 08:25:15;;;;;;;;;;;;;;;12.68;64.31;99404.45;68480;1278;1015942;-69
2024/02/16 08:28:17;;;;;;;;;;;;;;;12.86;63.87;99404.99;68488;1278;1015346;-69
2024/02/16 08:31:20;;;;;;;;;;;;;;;12.92;63.45;99404.21;68494;1278;1016071;-69
2024/02/16 08:34:23;;;;;;;;;;;;;;;13.01;62.77;99411.41;68491;1278;1015486;-69
2024/02/16 08:37:25;;;;;;;;;;;;;;;13.04;62.54;99413.34;68470;1278;1015932;-69
2024/02/16 08:40:28;;;;;;;;;;;;;;;13.07;62.67;99411.73;68497;1278;1016164;-69
2024/02/16 08:43:30;;;;;;;;;;;;;;;13.18;62.96;99410.21;68502;1278;1015491;-69
2024/02/16 08:46:33;;;;;;;;;;;;;;;13.44;61.94;99406.30;68489;1278;1015282;-69
2024/02/16 08:49:36;;;;;;;;;;;;;;;13.54;61.73;99404.10;68483;1278;1014753;-69
2024/02/16 08:52:39;;;;;;;;;;;;;;;13.78;61.23;99404.11;68492;1278;1015227;-69
2024/02/16 08:55:41;;;;;;;;;;;;;;;14.02;61.12;99405.87;68508;1278;1014646;-69
2024/02/16 08:58:51;;;;;;;;;;;;;;;14.15;60.64;99407.90;68497;1278;1015704;-69
2024/02/16 09:02:10;;;;;;;;;;;;;;;14.34;60.50;99404.85;68525;1278;1015662;-69
2024/02/16 09:05:12;;;;;;;;;;;;;;;14.39;60.32;99405.05;68478;1278;1015573;-69
2024/02/16 09:08:15;;;;;;;;;;;;;;;14.49;59.70;99409.62;68509;1278;1016192;-67
2024/02/16 09:11:18;;;;;;;;;;;;;;;14.64;59.84;99407.79;68486;1278;1015794;-69
2024/02/16 09:14:20;;;;;;;;;;;;;;;14.88;59.73;99409.15;68496;1278;1015928;-69
2024/02/16 09:17:23;;;;;;;;;;;;;;;14.96;60.05;99404.72;68500;1278;1015796;-69
2024/02/16 09:20:26;;;;;;;;;;;;;;;15.07;59.41;99401.48;68484;1278;1015391;-69
2024/02/16 09:23:29;;;;;;;;;;;;;;;15.13;58.64;99400.22;68489;1278;1015456;-70
2024/02/16 09:26:33;;;;;;;;;;;;;;;15.21;58.88;99402.42;68491;1278;1015779;-69
2024/02/16 09:29:36;;;;;;;;;;;;;;;15.29;58.71;99399.93;68499;1278;1016264;-69
2024/02/16 09:32:38;;;;;;;;;;;;;;;15.54;58.91;99400.64;68478;1278;1016018;-67
2024/02/16 09:35:41;;;;;;;;;;;;;;;15.85;57.63;99402.78;68496;1278;1015295;-69
2024/02/16 09:38:44;;;;;;;;;;;;;;;16.00;56.76;99401.55;68508;1278;1016064;-69
2024/02/16 09:41:47;;;;;;;;;;;;;;;16.11;55.94;99396.08;68485;1278;1015308;-69
2024/02/16 09:44:50;;;;;;;;;;;;;;;16.30;55.56;99396.45;68481;1278;1016077;-69
2024/02/16 09:47:52;;;;;;;;;;;;;;;16.32;55.71;99400.57;68487;1278;1015324;-66
2024/02/16 09:50:55;;;;;;;;;;;;;;;16.42;54.85;99395.05;68471;1278;1015347;-69
2024/02/16 09:53:57;;;;;;;;;;;;;;;16.44;54.12;99399.45;68494;1278;1016451;-64
2024/02/16 09:57:00;;;;;;;;;;;;;;;16.45;55.12;99401.27;68495;1279;1015016;-69
2024/02/16 10:00:03;;;;;;;;;;;;;;;16.83;55.32;99396.30;68483;1278;1015442;-69
2024/02/16 10:03:06;;;;;;;;;;;;;;;16.92;54.32;99397.44;68480;1278;1015900;-69
2024/02/16 10:06:08;;;;;;;;;;;;;;;17.04;53.62;99393.80;68479;1279;1015550;-69
2024/02/16 10:09:11;;;;;;;;;;;;;;;17.13;54.30;99393.48;68492;1278;1015375;-69
2024/02/16 10:12:14;;;;;;;;;;;;;;;17.33;52.88;99391.20;68506;1279;1015604;-69
2024/02/16 10:15:16;;;;;;;;;;;;;;;17.52;52.62;99391.75;68474;1278;1016006;-69
2024/02/16 10:18:19;;;;;;;;;;;;;;;17.69;51.98;99385.84;68488;1279;1016052;-68
2024/02/16 10:21:22;;;;;;;;;;;;;;;17.75;51.80;99387.61;68472;1278;1015718;-69
2024/02/16 10:24:24;;;;;;;;;;;;;;;17.95;51.04;99383.52;68496;1278;1015428;-69
2024/02/16 10:27:27;;;;;;;;;;;;;;;17.80;51.14;99385.59;68482;1278;1015180;-69
2024/02/16 10:30:30;;;;;;;;;;;;;;;17.77;50.92;99381.09;68474;1278;1016540;-69
2024/02/16 10:33:33;;;;;;;;;;;;;;;17.93;51.84;99375.04;68474;1278;1016121;-69
2024/02/16 10:36:37;;;;;;;;;;;;;;;17.98;51.32;99371.07;68494;1278;1015363;-69
2024/02/16 10:39:39;;;;;;;;;;;;;;;18.02;50.55;99373.94;68500;1278;1016506;-69
2024/02/16 10:42:43;;;;;;;;;;;;;;;17.92;50.96;99377.61;68490;1279;1015161;-69
2024/02/16 10:45:47;;;;;;;;;;;;;;;17.97;51.66;99376.34;68469;1278;1015985;-69
2024/02/16 10:48:49;;;;;;;;;;;;;;;18.19;50.70;99372.84;68494;1279;1015951;-69
2024/02/16 10:51:53;;;;;;;;;;;;;;;18.26;50.48;99369.61;68501;1278;1015726;-68
2024/02/16 10:54:55;;;;;;;;;;;;;;;18.50;50.35;99365.61;68506;1278;1015731;-61
2024/02/16 10:57:58;;;;;;;;;;;;;;;18.58;49.79;99363.58;68495;1278;1015955;-69
2024/02/16 11:01:01;;;;;;;;;;;;;;;18.61;49.47;99360.48;68504;1278;1015511;-69
2024/02/16 11:04:03;;;;;;;;;;;;;;;18.83;49.56;99355.58;68477;1279;1014443;-69
2024/02/16 11:07:09;;;;;;;;;;;;;;;18.94;48.64;99354.84;68503;1279;1015435;-69
2024/02/16 11:10:12;;;;;;;;;;;;;;;18.96;48.86;99348.57;68477;1278;1016608;-69
2024/02/16 11:13:14;;;;;;;;;;;;;;;19.05;47.94;99346.42;68481;1278;1016620;-69
2024/02/16 11:16:17;;;;;;;;;;;;;;;19.05;48.48;99342.02;68498;1278;1015192;-68
2024/02/16 11:19:19;;;;;;;;;;;;;;;19.22;48.45;99336.59;68499;1278;1015675;-69
2024/02/16 11:22:23;;;;;;;;;;;;;;;19.33;48.61;99330.88;68494;1278;1015841;-69
2024/02/16 11:25:26;;;;;;;;;;;;;;;19.39;48.06;99331.03;68507;1278;1015681;-69
2024/02/16 11:28:29;;;;;;;;;;;;;;;19.47;48.28;99329.98;68478;1279;1015187;-69
2024/02/16 11:31:31;;;;;;;;;;;;;;;19.61;47.83;99327.43;68483;1278;1016046;-68
2024/02/16 11:34:34;;;;;;;;;;;;;;;19.66;47.54;99323.59;68494;1279;1016558;-69
2024/02/16 11:37:37;;;;;;;;;;;;;;;19.67;47.31;99320.49;68492;1278;1015025;-69
2024/02/16 11:40:39;;;;;;;;;;;;;;;19.65;47.14;99320.72;68466;1278;1015380;-69
2024/02/16 11:43:42;;;;;;;;;;;;;;;19.56;47.32;99315.10;68465;1278;1015435;-69
2024/02/16 11:46:44;;;;;;;;;;;;;;;19.64;46.63;99311.08;68488;1279;1015218;-69
2024/02/16 11:49:47;;;;;;;;;;;;;;;19.60;46.95;99306.80;68472;1278;1015401;-69
2024/02/16 11:52:49;;;;;;;;;;;;;;;19.50;47.39;99300.19;68489;1278;1015817;-67
2024/02/16 11:55:52;;;;;;;;;;;;;;;19.64;47.43;99300.92;68475;1279;1015595;-69
2024/02/16 11:58:54;;;;;;;;;;;;;;;19.70;46.51;99298.58;68497;1278;1015369;-68
2024/02/16 12:01:57;;;;;;;;;;;;;;;19.72;46.97;99295.39;68482;1278;1015665;-69
2024/02/16 12:05:00;;;;;;;;;;;;;;;19.75;46.68;99291.05;68487;1278;1015163;-69
2024/02/16 12:08:02;;;;;;;;;;;;;;;19.81;46.49;99290.53;68474;1278;1015888;-68
2024/02/16 12:11:05;;;;;;;;;;;;;;;19.75;46.37;99288.58;68491;1278;1015478;-68
2024/02/16 12:14:07;;;;;;;;;;;;;;;19.79;45.83;99289.52;68481;1278;1015698;-69
2024/02/16 12:17:10;;;;;;;;;;;;;;;19.81;45.72;99282.52;68480;1278;1014525;-69
2024/02/16 12:20:14;;;;;;;;;;;;;;;19.92;46.58;99283.52;68475;1278;1015851;-69
2024/02/16 12:23:17;;;;;;;;;;;;;;;20.05;45.70;99276.39;68494;1278;1015974;-69
2024/02/16 12:26:20;;;;;;;;;;;;;;;20.03;45.67;99276.48;68493;1278;1015477;-69
2024/02/16 12:29:22;;;;;;;;;;;;;;;19.98;46.28;99270.67;68467;1279;1015858;-69
2024/02/16 12:32:25;;;;;;;;;;;;;;;20.05;46.32;99270.02;68480;1279;1015823;-69
2024/02/16 12:35:27;;;;;;;;;;;;;;;20.08;45.69;99269.23;68490;1278;1015592;-69
2024/02/16 12:38:31;;;;;;;;;;;;;;;20.09;45.88;99273.36;68488;1278;1016072;-69
2024/02/16 12:41:34;;;;;;;;;;;;;;;20.24;45.43;99272.13;68491;1278;1015642;-70
2024/02/16 12:44:36;;;;;;;;;;;;;;;20.26;45.93;99269.78;68469;1278;1016181;-69
2024/02/16 12:47:39;;;;;;;;;;;;;;;20.25;45.82;99269.18;68498;1278;1015891;-68
2024/02/16 12:50:42;;;;;;;;;;;;;;;20.18;45.45;99268.65;68476;1278;1016088;-69
2024/02/16 12:53:45;;;;;;;;;;;;;;;20.12;46.00;99265.69;68493;1278;1015723;-69
2024/02/16 12:56:48;;;;;;;;;;;;;;;20.21;45.75;99266.96;68479;1279;1015806;-68
2024/02/16 12:59:50;;;;;;;;;;;;;;;20.28;45.69;99262.23;68480;1279;1015575;-69
2024/02/16 13:02:53;;;;;;;;;;;;;;;20.30;45.19;99263.64;68493;1278;1015074;-64
2024/02/16 13:05:57;;;;;;;;;;;;;;;20.33;44.72;99262.81;68505;1278;1015783;-68
2024/02/16 13:09:00;;;;;;;;;;;;;;;20.31;44.94;99259.06;68498;1278;1015510;-69
2024/02/16 13:12:02;;;;;;;;;;;;;;;20.33;44.55;99262.13;68482;1278;1015915;-69
2024/02/16 13:15:06;;;;;;;;;;;;;;;20.27;45.23;99256.42;68500;1279;1015995;-69
2024/02/16 13:18:09;;;;;;;;;;;;;;;20.23;45.07;99249.15;68504;1279;1016191;-69
2024/02/16 13:21:11;;;;;;;;;;;;;;;20.12;45.30;99245.45;68501;1278;1016263;-69
2024/02/16 13:24:14;;;;;;;;;;;;;;;20.10;45.16;99239.06;68491;1278;1015873;-68
2024/02/16 13:27:16;;;;;;;;;;;;;;;19.98;45.62;99237.52;68519;1278;1016224;-68
2024/02/16 13:30:19;;;;;;;;;;;;;;;20.09;45.79;99242.36;68494;1278;1016032;-69
2024/02/16 13:33:21;;;;;;;;;;;;;;;20.11;45.82;99239.01;68503;1279;1015657;-69
2024/02/16 13:36:24;;;;;;;;;;;;;;;20.20;45.59;99234.75;68470;1278;1015917;-69
2024/02/16 13:39:27;;;;;;;;;;;;;;;20.14;45.48;99233.37;68487;1278;1015582;-69
2024/02/16 13:42:31;;;;;;;;;;;;;;;19.97;45.20;99226.77;68496;1278;1015512;-68
2024/02/16 13:45:33;;;;;;;;;;;;;;;19.97;45.75;99223.38;68504;1278;1015488;-69
2024/02/16 13:48:37;;;;;;;;;;;;;;;20.05;46.32;99224.25;68496;1278;1016177;-69
2024/02/16 13:51:39;;;;;;;;;;;;;;;20.21;45.84;99218.09;68499;1278;1015195;-69
2024/02/16 13:54:43;;;;;;;;;;;;;;;20.17;44.71;99214.08;68507;1279;1015515;-69
2024/02/16 13:57:46;;;;;;;;;;;;;;;20.04;45.48;99215.29;68501;1278;1015449;-69
2024/02/16 14:00:49;;;;;;;;;;;;;;;19.96;44.87;99215.69;68495;1278;1016021;-69
2024/02/16 14:03:53;;;;;;;;;;;;;;;19.78;45.91;99215.01;68452;1279;1016303;-67
2024/02/16 14:06:57;;;;;;;;;;;;;;;19.64;45.22;99214.73;68501;1278;1016228;-69
2024/02/16 14:10:00;;;;;;;;;;;;;;;19.71;45.85;99211.38;68492;1278;1015173;-69
2024/02/16 14:13:02;;;;;;;;;;;;;;;19.63;44.97;99213.42;68504;1279;1015463;-69
2024/02/16 14:16:05;;;;;;;;;;;;;;;19.46;45.56;99214.72;68504;1278;1016206;-69
2024/02/16 14:19:07;;;;;;;;;;;;;;;19.63;45.88;99217.34;68502;1278;1015650;-69
2024/02/16 14:22:12;;;;;;;;;;;;;;;19.71;46.02;99216.39;68493;1279;1016081;-68
2024/02/16 14:25:15;;;;;;;;;;;;;;;19.71;45.69;99215.66;68503;1278;1016247;-69
2024/02/16 14:28:17;;;;;;;;;;;;;;;19.67;46.01;99221.86;68501;1278;1015724;-69
2024/02/16 14:31:20;;;;;;;;;;;;;;;19.45;46.33;99218.64;68500;1278;1015195;-69
2024/02/16 14:34:22;;;;;;;;;;;;;;;19.20;46.74;99213.96;68504;1278;1016495;-69
2024/02/16 14:37:25;;;;;;;;;;;;;;;19.28;46.86;99212.55;68490;1278;1015520;-69
2024/02/16 14:40:27;;;;;;;;;;;;;;;19.30;46.96;99211.59;68492;1278;1015295;-69
2024/02/16 14:43:30;;;;;;;;;;;;;;;19.31;47.00;99212.56;68513;1278;1015384;-70
2024/02/16 14:46:34;;;;;;;;;;;;;;;19.24;46.91;99211.29;68499;1279;1015856;-69
2024/02/16 14:49:36;;;;;;;;;;;;;;;19.22;46.88;99211.31;68519;1278;1015741;-69
2024/02/16 14:52:39;;;;;;;;;;;;;;;19.15;47.03;99210.48;68501;1278;1014582;-69
2024/02/16 14:55:46;;;;;;;;;;;;;;;19.09;47.23;99213.58;68499;1278;1015383;-69
2024/02/16 14:58:49;;;;;;;;;;;;;;;19.01;47.47;99214.77;68523;1278;1015355;-69
2024/02/16 15:01:51;;;;;;;;;;;;;;;19.00;47.70;99209.28;68509;1278;1016164;-69
2024/02/16 15:04:54;;;;;;;;;;;;;;;19.04;47.71;99208.10;68506;1278;1015898;-69
2024/02/16 15:07:57;;;;;;;;;;;;;;;18.92;47.98;99206.89;68525;1278;1015323;-69
2024/02/16 15:10:59;;;;;;;;;;;;;;;18.72;48.28;99210.04;68509;1278;1015608;-70
2024/02/16 15:14:02;;;;;;;;;;;;;;;18.51;48.77;99206.92;68507;1278;1015588;-69
2024/02/16 15:17:05;;;;;;;;;;;;;;;18.37;49.14;99203.35;68510;1278;1016269;-69
2024/02/16 15:20:08;;;;;;;;;;;;;;;18.32;49.16;99199.21;68520;1278;1015805;-69
2024/02/16 15:23:11;;;;;;;;;;;;;;;18.35;48.94;99200.52;68505;1278;1015389;-70
2024/02/16 15:26:13;;;;;;;;;;;;;;;18.14;49.29;99200.96;68528;1278;1015321;-69
2024/02/16 15:29:16;;;;;;;;;;;;;;;18.07;49.40;99206.88;68501;1278;1015262;-69
2024/02/16 15:32:18;;;;;;;;;;;;;;;17.97;49.61;99208.78;68522;1278;1015724;-69